createdAt,value
2024-05-09T00:00:36.361Z,94635.97
2024-05-09T00:03:08.413Z,94662.94
2024-05-09T00:05:36.928Z,94627.53
2024-05-09T00:08:04.378Z,94640.22
2024-05-09T00:10:36.392Z,94644.25
2024-05-09T00:13:06.290Z,94594.09
2024-05-09T00:15:34.077Z,94624.22
2024-05-09T00:18:01.668Z,94635.16
2024-05-09T00:20:36.847Z,94577.56
2024-05-09T00:23:10.857Z,94546.63
2024-05-09T00:25:38.182Z,94635.66
2024-05-09T00:28:05.875Z,94608.97
2024-05-09T00:30:35.769Z,94616.28
2024-05-09T00:33:04.740Z,94643.25
2024-05-09T00:35:32.386Z,94627.88
2024-05-09T00:37:59.810Z,94622.84
2024-05-09T00:40:37.338Z,94581.34
2024-05-09T00:43:06.973Z,94576.47
2024-05-09T00:45:36.825Z,94586.72
2024-05-09T00:48:07.539Z,94633.69
2024-05-09T00:50:38.143Z,94591.69
2024-05-09T00:53:14.899Z,94620.91
2024-05-09T00:55:42.531Z,94591.56
2024-05-09T00:58:12.282Z,94612.88
2024-05-09T01:00:41.154Z,94621.84
2024-05-09T01:03:11.294Z,94628.47
2024-05-09T01:05:40.327Z,94574.19
2024-05-09T01:08:08.009Z,94559.31
2024-05-09T01:10:36.368Z,94608.00
2024-05-09T01:13:07.480Z,94614.44
2024-05-09T01:15:35.316Z,94618.94
2024-05-09T01:18:12.922Z,94549.19
2024-05-09T01:20:43.371Z,94595.75
2024-05-09T01:23:12.782Z,94566.59
2024-05-09T01:25:40.563Z,94572.66
2024-05-09T01:28:07.370Z,94531.47
2024-05-09T01:30:36.533Z,94561.00
2024-05-09T01:33:09.763Z,94626.44
2024-05-09T01:35:39.221Z,94563.91
2024-05-09T01:38:06.938Z,94629.09
2024-05-09T01:40:38.750Z,94613.38
2024-05-09T01:43:11.445Z,94625.84
2024-05-09T01:45:42.466Z,94620.56
2024-05-09T01:48:10.484Z,94565.44
2024-05-09T01:50:41.474Z,94608.50
2024-05-09T01:53:11.373Z,94572.09
2024-05-09T01:55:38.744Z,94597.16
2024-05-09T01:58:05.719Z,94624.59
2024-05-09T02:00:39.176Z,94525.50
2024-05-09T02:03:11.526Z,94578.84
2024-05-09T02:05:41.271Z,94579.88
2024-05-09T02:08:13.993Z,94595.88
2024-05-09T02:10:40.916Z,94577.38
2024-05-09T02:13:10.565Z,94484.59
2024-05-09T02:15:37.252Z,94608.06
2024-05-09T02:18:04.571Z,94549.00
2024-05-09T02:20:36.232Z,94569.88
2024-05-09T02:23:05.293Z,94560.59
2024-05-09T02:25:32.498Z,94575.94
2024-05-09T02:27:59.625Z,94619.06
2024-05-09T02:30:36.170Z,94574.06
2024-05-09T02:33:07.814Z,94613.44
2024-05-09T02:35:35.133Z,94582.75
2024-05-09T02:38:02.051Z,94568.19
2024-05-09T02:40:36.200Z,94591.84
2024-05-09T02:43:06.031Z,94618.50
2024-05-09T02:45:33.349Z,94617.38
2024-05-09T02:48:00.780Z,94576.50
2024-05-09T02:50:34.597Z,94600.56
2024-05-09T02:53:06.144Z,94589.63
2024-05-09T02:55:33.180Z,94560.84
2024-05-09T02:58:00.005Z,94610.50
2024-05-09T03:00:35.174Z,94603.50
2024-05-09T03:03:08.573Z,94593.50
2024-05-09T03:05:36.856Z,94547.31
2024-05-09T03:08:04.276Z,94584.03
2024-05-09T03:10:35.996Z,94601.66
2024-05-09T03:13:14.152Z,94498.16
2024-05-09T03:15:42.853Z,94578.56
2024-05-09T03:18:10.792Z,94576.44
2024-05-09T03:20:38.405Z,94582.06
2024-05-09T03:23:09.599Z,94590.84
2024-05-09T03:25:37.442Z,94539.81
2024-05-09T03:28:04.393Z,94540.19
2024-05-09T03:30:39.756Z,94557.94
2024-05-09T03:33:18.628Z,94540.16
2024-05-09T03:35:48.799Z,94586.72
2024-05-09T03:38:16.332Z,94546.28
2024-05-09T03:40:47.687Z,94538.44
2024-05-09T03:43:15.533Z,94583.81
2024-05-09T03:45:42.953Z,94589.47
2024-05-09T03:48:10.144Z,94570.69
2024-05-09T03:50:37.673Z,94573.50
2024-05-09T03:53:05.136Z,94520.38
2024-05-09T03:55:32.111Z,94566.75
2024-05-09T03:57:59.261Z,94579.00
2024-05-09T04:00:34.563Z,94567.47
2024-05-09T04:03:07.678Z,94544.56
2024-05-09T04:05:38.023Z,94584.59
2024-05-09T04:08:05.677Z,94552.78
2024-05-09T04:10:34.245Z,94501.81
2024-05-09T04:13:02.631Z,94560.09
2024-05-09T04:15:29.710Z,94614.31
2024-05-09T04:17:56.727Z,94566.34
2024-05-09T04:20:35.543Z,94595.31
2024-05-09T04:23:07.182Z,94609.00
2024-05-09T04:25:34.889Z,94551.19
2024-05-09T04:28:01.760Z,94514.31
2024-05-09T04:30:37.113Z,94557.69
2024-05-09T04:33:09.258Z,94609.78
2024-05-09T04:35:38.413Z,94592.06
2024-05-09T04:38:05.971Z,94608.44
2024-05-09T04:40:35.952Z,94550.03
2024-05-09T04:43:13.587Z,94540.72
2024-05-09T04:45:40.796Z,94617.22
2024-05-09T04:48:08.304Z,94575.56
2024-05-09T04:50:38.338Z,94569.16
2024-05-09T04:53:08.813Z,94608.59
2024-05-09T04:55:37.277Z,94603.03
2024-05-09T04:58:05.053Z,94610.06
2024-05-09T05:00:36.483Z,94621.84
2024-05-09T05:03:07.615Z,94571.22
2024-05-09T05:05:40.345Z,94641.31
2024-05-09T05:08:18.594Z,94627.59
2024-05-09T05:10:47.329Z,94621.34
2024-05-09T05:13:23.832Z,94610.56
2024-05-09T05:15:55.929Z,94593.00
2024-05-09T05:18:23.915Z,94599.16
2024-05-09T05:20:50.857Z,94622.47
2024-05-09T05:23:21.758Z,94606.81
2024-05-09T05:25:53.429Z,94590.41
2024-05-09T05:28:20.678Z,94592.41
2024-05-09T05:30:47.562Z,94635.75
2024-05-09T05:33:16.072Z,94584.22
2024-05-09T05:35:43.128Z,94582.13
2024-05-09T05:38:10.985Z,94601.34
2024-05-09T05:40:39.056Z,94633.16
2024-05-09T05:43:11.194Z,94618.06
2024-05-09T05:45:38.952Z,94594.63
2024-05-09T05:48:07.282Z,94551.88
2024-05-09T05:50:37.186Z,94593.28
2024-05-09T05:53:07.811Z,94621.50
2024-05-09T05:55:39.959Z,94594.34
2024-05-09T05:58:11.123Z,94628.72
2024-05-09T06:00:40.049Z,94634.84
2024-05-09T06:03:09.464Z,94546.66
2024-05-09T06:05:39.801Z,94627.84
2024-05-09T06:08:07.397Z,94596.44
2024-05-09T06:10:38.507Z,94645.69
2024-05-09T06:13:10.490Z,94629.50
2024-05-09T06:15:37.446Z,94609.66
2024-05-09T06:18:08.410Z,94616.09
2024-05-09T06:20:37.778Z,94590.13
2024-05-09T06:23:09.826Z,94577.22
2024-05-09T06:25:37.325Z,94641.19
2024-05-09T06:28:04.470Z,94591.06
2024-05-09T06:30:38.776Z,94604.94
2024-05-09T06:33:11.292Z,94588.41
2024-05-09T06:35:40.097Z,94561.94
2024-05-09T06:38:09.554Z,94627.75
2024-05-09T06:40:40.223Z,94607.63
2024-05-09T06:43:12.992Z,94625.00
2024-05-09T06:45:40.297Z,94601.06
2024-05-09T06:48:08.334Z,94558.22
2024-05-09T06:50:38.085Z,94609.53
2024-05-09T06:53:07.168Z,94612.34
2024-05-09T06:55:34.087Z,94620.50
2024-05-09T06:58:00.841Z,94584.25
2024-05-09T07:00:35.359Z,94604.06
2024-05-09T07:03:16.892Z,94571.63
2024-05-09T07:05:46.875Z,94572.94
2024-05-09T07:08:14.839Z,94626.63
2024-05-09T07:10:41.974Z,94576.97
2024-05-09T07:13:10.049Z,94559.03
2024-05-09T07:15:36.892Z,94525.19
2024-05-09T07:18:13.743Z,94628.69
2024-05-09T07:20:41.461Z,94623.56
2024-05-09T07:23:12.158Z,94623.38
2024-05-09T07:25:40.268Z,94623.91
2024-05-09T07:28:13.554Z,94623.84
2024-05-09T07:30:40.337Z,94614.75
2024-05-09T07:33:07.221Z,94615.44
2024-05-09T07:35:34.237Z,94600.25
2024-05-09T07:38:01.338Z,94563.06
2024-05-09T07:40:34.832Z,94499.56
2024-05-09T07:43:04.606Z,94586.41
2024-05-09T07:45:48.020Z,94572.09
2024-05-09T07:52:33.087Z,94608.47
2024-05-09T07:53:47.234Z,94632.31
2024-05-09T07:56:18.583Z,94618.84
2024-05-09T07:58:46.412Z,94573.69
2024-05-09T08:01:13.248Z,94590.72
2024-05-09T08:03:40.147Z,94612.28
2024-05-09T08:06:06.968Z,94574.94
2024-05-09T08:08:33.684Z,94572.44
2024-05-09T08:11:00.412Z,94598.34
2024-05-09T08:13:27.256Z,94606.84
2024-05-09T08:15:54.001Z,94546.22
2024-05-09T08:18:20.863Z,94605.34
2024-05-09T08:20:48.938Z,94605.19
2024-05-09T08:23:15.964Z,94564.16
2024-05-09T08:25:44.974Z,94593.84
2024-05-09T08:28:12.262Z,94595.03
2024-05-09T08:30:39.252Z,94590.41
2024-05-09T08:33:07.471Z,94599.38
2024-05-09T08:35:35.330Z,94585.84
2024-05-09T08:38:06.662Z,94553.59
2024-05-09T08:40:36.386Z,94584.59
2024-05-09T08:43:10.869Z,94571.56
2024-05-09T08:45:42.675Z,94596.25
2024-05-09T08:48:12.683Z,94570.75
2024-05-09T08:50:43.208Z,94530.59
2024-05-09T08:53:10.213Z,94541.47
2024-05-09T08:55:40.762Z,94597.53
2024-05-09T08:58:14.368Z,94558.00
2024-05-09T09:00:42.328Z,94588.47
2024-05-09T09:03:09.756Z,94579.69
2024-05-09T09:05:39.706Z,94541.44
2024-05-09T09:08:08.598Z,94528.06
2024-05-09T09:10:36.346Z,94529.28
2024-05-09T09:13:09.727Z,94531.22
2024-05-09T09:15:50.345Z,94578.97
2024-05-09T09:18:18.467Z,94577.84
2024-05-09T09:20:45.740Z,94539.03
2024-05-09T09:23:12.600Z,94573.06
2024-05-09T09:25:40.087Z,94536.81
2024-05-09T09:28:07.772Z,94539.22
2024-05-09T09:30:37.761Z,94529.28
2024-05-09T09:33:12.188Z,94524.69
2024-05-09T09:35:41.588Z,94569.84
2024-05-09T09:38:10.584Z,94587.16
2024-05-09T09:40:46.603Z,94565.94
2024-05-09T09:43:20.232Z,94514.75
2024-05-09T09:45:50.364Z,94578.47
2024-05-09T09:48:17.597Z,94537.56
2024-05-09T09:50:45.499Z,94574.16
2024-05-09T09:53:14.082Z,94513.22
2024-05-09T09:55:42.027Z,94534.47
2024-05-09T09:58:13.170Z,94587.00
2024-05-09T10:00:41.651Z,94542.84
2024-05-09T10:03:08.736Z,94556.78
2024-05-09T10:05:36.297Z,94555.38
2024-05-09T10:08:08.366Z,94543.75
2024-05-09T10:10:36.050Z,94588.94
2024-05-09T10:13:04.292Z,94582.50
2024-05-09T10:15:53.161Z,94591.28
2024-05-09T10:18:27.229Z,94566.50
2024-05-09T10:20:56.258Z,94583.19
2024-05-09T10:23:32.420Z,94551.63
2024-05-09T10:26:01.450Z,94537.06
2024-05-09T10:28:32.966Z,94569.47
2024-05-09T10:31:18.141Z,94539.81
2024-05-09T10:33:49.677Z,94593.19
2024-05-09T10:36:22.683Z,94532.66
2024-05-09T10:38:50.244Z,94535.56
2024-05-09T10:41:18.649Z,94557.50
2024-05-09T10:43:46.430Z,94539.16
2024-05-09T10:46:14.763Z,94562.22
2024-05-09T10:48:43.562Z,94519.63
2024-05-09T10:51:10.932Z,94563.19
2024-05-09T10:53:45.096Z,94576.59
2024-05-09T10:56:14.113Z,94524.06
2024-05-09T10:58:41.016Z,94516.69
2024-05-09T11:01:09.229Z,94532.28
2024-05-09T11:03:37.024Z,94515.16
2024-05-09T11:06:04.306Z,94573.66
2024-05-09T11:08:32.813Z,94478.28
2024-05-09T11:11:00.312Z,94565.88
2024-05-09T11:13:31.225Z,94563.19
2024-05-09T11:15:59.162Z,94558.66
2024-05-09T11:18:29.784Z,94569.97
2024-05-09T11:20:59.177Z,94573.75
2024-05-09T11:23:30.094Z,94551.44
2024-05-09T11:25:58.683Z,94569.59
2024-05-09T11:28:28.692Z,94479.72
2024-05-09T11:31:08.956Z,94572.28
2024-05-09T11:33:38.216Z,94575.84
2024-05-09T11:36:05.982Z,94580.97
2024-05-09T11:38:33.734Z,94577.31
2024-05-09T11:41:00.428Z,94535.66
2024-05-09T11:43:27.214Z,94560.53
2024-05-09T11:45:54.754Z,94480.75
2024-05-09T11:48:21.595Z,94532.91
2024-05-09T11:50:48.380Z,94517.63
2024-05-09T11:53:15.163Z,94552.06
2024-05-09T11:55:41.914Z,94553.41
2024-05-09T11:58:08.834Z,94486.13
2024-05-09T12:00:37.574Z,94552.22
2024-05-09T12:03:05.820Z,94544.94
2024-05-09T12:05:34.390Z,94526.16
2024-05-09T12:08:02.260Z,94546.19
2024-05-09T12:10:33.697Z,94540.03
2024-05-09T12:13:04.880Z,94535.47
2024-05-09T12:15:34.038Z,94540.81
2024-05-09T12:18:03.627Z,94536.75
2024-05-09T12:20:36.877Z,94544.38
2024-05-09T12:23:06.338Z,94517.41
2024-05-09T12:25:33.283Z,94533.06
2024-05-09T12:28:00.699Z,94531.84
2024-05-09T12:30:35.808Z,94536.94
2024-05-09T12:33:07.590Z,94503.03
2024-05-09T12:35:34.467Z,94502.59
2024-05-09T12:38:01.224Z,94518.25
2024-05-09T12:40:35.537Z,94519.06
2024-05-09T12:43:06.577Z,94539.84
2024-05-09T12:45:33.679Z,94485.72
2024-05-09T12:48:00.883Z,94533.84
2024-05-09T12:50:32.603Z,94535.25
2024-05-09T12:53:02.098Z,94529.34
2024-05-09T12:55:33.964Z,94459.00
2024-05-09T12:58:08.284Z,94496.44
2024-05-09T13:00:35.738Z,94452.00
2024-05-09T13:03:03.082Z,94466.81
2024-05-09T13:05:30.239Z,94468.03
2024-05-09T13:07:57.418Z,94500.78
2024-05-09T13:10:31.610Z,94492.75
2024-05-09T13:13:01.336Z,94496.88
2024-05-09T13:15:31.231Z,94462.72
2024-05-09T13:18:02.029Z,94423.44
2024-05-09T13:20:33.771Z,94462.69
2024-05-09T13:23:04.047Z,94517.38
2024-05-09T13:25:30.975Z,94372.25
2024-05-09T13:27:58.407Z,94485.84
2024-05-09T13:30:34.542Z,94405.34
2024-05-09T13:33:06.954Z,94482.78
2024-05-09T13:35:35.492Z,94470.47
2024-05-09T13:38:03.948Z,94499.66
2024-05-09T13:40:34.523Z,94493.56
2024-05-09T13:43:06.469Z,94487.78
2024-05-09T13:45:34.375Z,94442.53
2024-05-09T13:48:06.676Z,94487.72
2024-05-09T13:50:36.243Z,94485.66
2024-05-09T13:53:08.063Z,94429.91
2024-05-09T13:55:38.512Z,94488.16
2024-05-09T13:58:05.986Z,94475.31
2024-05-09T14:00:43.838Z,94475.00
2024-05-09T14:03:16.036Z,94474.41
2024-05-09T14:05:43.567Z,94449.97
2024-05-09T14:08:11.019Z,94454.28
2024-05-09T14:10:44.294Z,94454.53
2024-05-09T14:13:11.748Z,94391.34
2024-05-09T14:15:38.879Z,94415.28
2024-05-09T14:18:10.355Z,94421.97
2024-05-09T14:20:39.479Z,94468.81
2024-05-09T14:23:06.200Z,94409.47
2024-05-09T14:25:36.627Z,94419.06
2024-05-09T14:28:05.965Z,94436.94
2024-05-09T14:30:37.228Z,94410.75
2024-05-09T14:33:06.693Z,94436.22
2024-05-09T14:35:34.432Z,94404.34
2024-05-09T14:38:01.346Z,94458.53
2024-05-09T14:40:38.806Z,94432.44
2024-05-09T14:43:11.036Z,94394.09
2024-05-09T14:45:37.995Z,94454.81
2024-05-09T14:48:05.605Z,94430.78
2024-05-09T14:50:36.921Z,94444.03
2024-05-09T14:53:07.428Z,94391.19
2024-05-09T14:55:37.440Z,94431.41
2024-05-09T14:58:08.777Z,94403.28
2024-05-09T15:00:46.853Z,94454.44
2024-05-09T15:03:18.216Z,94344.63
2024-05-09T15:05:45.515Z,94376.75
2024-05-09T15:08:12.471Z,94450.13
2024-05-09T15:10:39.329Z,94412.41
2024-05-09T15:13:08.035Z,94391.53
2024-05-09T15:15:36.765Z,94418.94
2024-05-09T15:18:05.413Z,94377.81
2024-05-09T15:20:36.094Z,94442.63
2024-05-09T15:23:05.537Z,94437.31
2024-05-09T15:25:36.757Z,94421.06
2024-05-09T15:28:04.026Z,94421.88
2024-05-09T15:30:33.181Z,94361.25
2024-05-09T15:33:04.048Z,94395.38
2024-05-09T15:35:31.447Z,94356.91
2024-05-09T15:37:58.310Z,94375.66
2024-05-09T15:40:34.785Z,94416.56
2024-05-09T15:43:06.737Z,94416.53
2024-05-09T15:45:34.683Z,94411.63
2024-05-09T15:48:03.433Z,94391.31
2024-05-09T15:50:37.217Z,94382.00
2024-05-09T15:53:08.302Z,94373.84
2024-05-09T15:55:36.014Z,94383.50
2024-05-09T15:58:04.202Z,94383.63
2024-05-09T16:03:01.345Z,94408.25
2024-05-09T16:05:28.412Z,94406.38
2024-05-09T16:07:55.379Z,94378.41
2024-05-09T16:10:26.015Z,94390.63
2024-05-09T16:12:59.179Z,94374.41
2024-05-09T16:15:26.109Z,94372.13
2024-05-09T16:17:53.193Z,94412.91
2024-05-09T16:20:33.255Z,94401.84
2024-05-09T16:23:05.565Z,94341.38
2024-05-09T16:25:32.299Z,94354.47
2024-05-09T16:27:59.162Z,94431.59
2024-05-09T16:30:32.148Z,94420.66
2024-05-09T16:33:02.815Z,94377.03
2024-05-09T16:35:29.783Z,94404.84
2024-05-09T16:37:57.198Z,94394.69
2024-05-09T16:40:30.166Z,94359.81
2024-05-09T16:43:04.558Z,94364.81
2024-05-09T16:45:31.676Z,94371.47
2024-05-09T16:47:59.690Z,94362.72
2024-05-09T16:50:32.324Z,94396.72
2024-05-09T16:53:01.936Z,94345.88
2024-05-09T16:55:28.926Z,94422.31
2024-05-09T16:57:57.157Z,94402.41
2024-05-09T17:00:35.216Z,94287.53
2024-05-09T17:03:08.823Z,94379.38
2024-05-09T17:05:36.428Z,94401.78
2024-05-09T17:08:03.722Z,94396.88
2024-05-09T17:10:33.715Z,94386.38
2024-05-09T17:13:03.259Z,94361.91
2024-05-09T17:15:31.094Z,94339.09
2024-05-09T17:17:58.175Z,94409.16
2024-05-09T17:20:32.000Z,94353.66
2024-05-09T17:23:02.849Z,94389.88
2024-05-09T17:25:29.856Z,94337.09
2024-05-09T17:27:57.206Z,94395.22
2024-05-09T17:30:29.243Z,94383.88
2024-05-09T17:33:02.584Z,94310.59
2024-05-09T17:35:29.393Z,94388.16
2024-05-09T17:37:56.683Z,94363.59
2024-05-09T17:42:53.317Z,94412.91
2024-05-09T17:45:20.719Z,94416.44
2024-05-09T17:47:47.790Z,94351.72
2024-05-09T17:50:21.039Z,94406.34
2024-05-09T17:52:53.948Z,94364.84
2024-05-09T17:55:21.404Z,94421.97
2024-05-09T17:57:48.529Z,94395.25
2024-05-09T18:00:24.599Z,94402.44
2024-05-09T18:03:00.677Z,94359.91
2024-05-09T18:05:29.157Z,94366.50
2024-05-09T18:07:57.234Z,94421.59
2024-05-09T18:10:30.138Z,94367.72
2024-05-09T18:13:02.917Z,94391.97
2024-05-09T18:15:29.674Z,94418.50
2024-05-09T18:17:56.752Z,94435.75
2024-05-09T18:20:33.110Z,94430.63
2024-05-09T18:23:08.262Z,94401.81
2024-05-09T18:25:35.178Z,94414.56
2024-05-09T18:28:03.223Z,94394.44
2024-05-09T18:30:34.846Z,94431.88
2024-05-09T18:33:08.055Z,94432.66
2024-05-09T18:35:36.414Z,94369.34
2024-05-09T18:38:04.090Z,94433.50
2024-05-09T18:40:34.927Z,94393.66
2024-05-09T18:43:06.699Z,94375.34
2024-05-09T18:45:35.183Z,94395.06
2024-05-09T18:48:05.057Z,94425.25
2024-05-09T18:50:36.832Z,94429.38
2024-05-09T18:53:06.512Z,94437.22
2024-05-09T18:55:33.735Z,94434.13
2024-05-09T18:58:00.718Z,94438.38
2024-05-09T19:00:34.463Z,94443.13
2024-05-09T19:03:06.244Z,94437.53
2024-05-09T19:05:35.318Z,94383.69
2024-05-09T19:08:02.930Z,94408.06
2024-05-09T19:10:34.263Z,94388.88
2024-05-09T19:13:06.680Z,94449.25
2024-05-09T19:15:38.005Z,94463.66
2024-05-09T19:18:05.544Z,94469.78
2024-05-09T19:20:34.949Z,94451.09
2024-05-09T19:23:03.454Z,94412.25
2024-05-09T19:25:30.511Z,94456.19
2024-05-09T19:27:57.501Z,94405.22
2024-05-09T19:30:32.936Z,94471.22
2024-05-09T19:33:06.203Z,94460.91
2024-05-09T19:35:33.201Z,94480.31
2024-05-09T19:38:00.116Z,94432.41
2024-05-09T19:40:31.499Z,94390.84
2024-05-09T19:43:05.308Z,94408.53
2024-05-09T19:45:34.117Z,94476.03
2024-05-09T19:48:02.008Z,94466.91
2024-05-09T19:50:37.182Z,94476.78
2024-05-09T19:53:10.217Z,94439.19
2024-05-09T19:55:37.509Z,94469.44
2024-05-09T19:58:05.685Z,94424.63
2024-05-09T20:00:39.898Z,94432.41
2024-05-09T20:03:09.755Z,94494.09
2024-05-09T20:05:37.688Z,94489.53
2024-05-09T20:08:05.836Z,94349.19
2024-05-09T20:10:35.169Z,94485.41
2024-05-09T20:13:04.961Z,94466.63
2024-05-09T20:15:34.944Z,94441.50
2024-05-09T20:18:02.237Z,94431.34
2024-05-09T20:20:37.035Z,94474.84
2024-05-09T20:23:08.190Z,94441.88
2024-05-09T20:25:34.887Z,94433.34
2024-05-09T20:28:01.758Z,94492.66
2024-05-09T20:30:32.450Z,94386.84
2024-05-09T20:33:02.984Z,94469.91
2024-05-09T20:35:32.736Z,94488.78
2024-05-09T20:38:01.301Z,94419.66
2024-05-09T20:40:33.176Z,94417.88
2024-05-09T20:43:03.837Z,94488.97
2024-05-09T20:45:30.646Z,94432.72
2024-05-09T20:47:57.858Z,94495.75
2024-05-09T20:50:35.463Z,94412.00
2024-05-09T20:53:08.545Z,94475.38
2024-05-09T20:55:35.396Z,94479.44
2024-05-09T20:58:02.249Z,94467.78
2024-05-09T21:00:35.542Z,94483.72
2024-05-09T21:03:07.429Z,94448.16
2024-05-09T21:05:35.274Z,94475.00
2024-05-09T21:08:02.755Z,94493.41
2024-05-09T21:10:32.954Z,94426.00
2024-05-09T21:13:00.932Z,94494.28
2024-05-09T21:15:27.801Z,94467.03
2024-05-09T21:17:54.564Z,94418.44
2024-05-09T21:20:28.279Z,94458.38
2024-05-09T21:22:57.913Z,94416.34
2024-05-09T21:25:24.759Z,94461.56
2024-05-09T21:27:51.614Z,94373.44
2024-05-09T21:30:27.759Z,94439.41
2024-05-09T21:33:04.846Z,94441.44
2024-05-09T21:35:32.026Z,94415.16
2024-05-09T21:37:58.761Z,94440.38
2024-05-09T21:40:33.278Z,94448.91
2024-05-09T21:43:02.337Z,94373.75
2024-05-09T21:45:29.192Z,94471.00
2024-05-09T21:47:56.121Z,94415.53
2024-05-09T21:50:28.676Z,94490.78
2024-05-09T21:53:03.264Z,94373.84
2024-05-09T21:55:30.231Z,94419.75
2024-05-09T21:57:57.235Z,94469.28
2024-05-09T22:00:32.118Z,94483.78
2024-05-09T22:03:03.717Z,94471.97
2024-05-09T22:05:30.864Z,94443.34
2024-05-09T22:07:57.814Z,94475.56
2024-05-09T22:10:31.006Z,94462.75
2024-05-09T22:13:01.765Z,94490.31
2024-05-09T22:15:28.656Z,94459.34
2024-05-09T22:17:57.138Z,94485.13
2024-05-09T22:20:33.718Z,94428.94
2024-05-09T22:23:04.495Z,94486.69
2024-05-09T22:25:32.284Z,94469.69
2024-05-09T22:28:00.352Z,94483.19
2024-05-09T22:30:35.425Z,94408.69
2024-05-09T22:33:06.724Z,94471.22
2024-05-09T22:35:33.705Z,94468.63
2024-05-09T22:38:00.453Z,94460.75
2024-05-09T22:42:56.972Z,94364.59
2024-05-09T22:45:23.775Z,94450.03
2024-05-09T22:47:50.635Z,94431.63
2024-05-09T22:50:26.242Z,94451.41
2024-05-09T22:52:53.966Z,94401.47
2024-05-09T22:55:20.697Z,94467.19
2024-05-09T22:57:47.495Z,94421.47
2024-05-09T23:00:16.051Z,94442.22
2024-05-09T23:02:45.336Z,94470.59
2024-05-09T23:05:12.306Z,94480.50
2024-05-09T23:07:39.139Z,94450.94
2024-05-09T23:10:13.040Z,94422.66
2024-05-09T23:12:43.872Z,94402.53
2024-05-09T23:15:10.618Z,94465.25
2024-05-09T23:17:37.569Z,94394.66
2024-05-09T23:20:06.867Z,94443.25
2024-05-09T23:22:35.537Z,94444.56
2024-05-09T23:25:02.388Z,94469.03
2024-05-09T23:27:29.110Z,94449.84
2024-05-09T23:29:55.883Z,94481.28
2024-05-09T23:32:22.647Z,94441.41
2024-05-09T23:34:49.463Z,94400.31
2024-05-09T23:37:16.192Z,94472.03
2024-05-09T23:39:43.023Z,94413.53
2024-05-09T23:42:09.897Z,94453.84
2024-05-09T23:44:36.559Z,94401.63
2024-05-09T23:47:03.481Z,94429.09
2024-05-09T23:49:30.330Z,94414.13
2024-05-09T23:51:57.259Z,94448.22
2024-05-09T23:54:23.956Z,94433.19
2024-05-09T23:56:50.665Z,94441.47
2024-05-09T23:59:17.366Z,94402.25
